createdAt,value
2022-12-23T00:01:50.564Z,2.37
2022-12-23T00:04:17.300Z,2.39
2022-12-23T00:06:44.110Z,2.40
2022-12-23T00:09:10.729Z,2.41
2022-12-23T00:11:37.385Z,2.36
2022-12-23T00:14:22.800Z,2.36
2022-12-23T00:16:51.162Z,2.31
2022-12-23T00:19:18.220Z,2.38
2022-12-23T00:21:45.085Z,2.34
2022-12-23T00:24:12.198Z,2.35
2022-12-23T00:26:38.752Z,2.33
2022-12-23T00:29:05.360Z,2.37
2022-12-23T00:31:32.019Z,2.37
2022-12-23T00:33:58.929Z,2.20
2022-12-23T00:36:28.249Z,2.37
2022-12-23T00:39:15.069Z,2.37
2022-12-23T00:42:00.746Z,2.36
2022-12-23T00:44:27.437Z,2.28
2022-12-23T00:46:54.210Z,2.36
2022-12-23T00:49:40.242Z,2.36
2022-12-23T00:52:09.322Z,2.32
2022-12-23T00:54:36.186Z,2.31
2022-12-23T00:57:03.451Z,2.35
2022-12-23T00:59:30.109Z,2.32
2022-12-23T01:02:15.472Z,2.36
2022-12-23T01:05:01.681Z,2.36
2022-12-23T01:07:28.251Z,2.34
2022-12-23T01:09:54.800Z,2.36
2022-12-23T01:12:21.548Z,2.36
2022-12-23T01:14:48.660Z,2.35
2022-12-23T01:17:15.827Z,2.33
2022-12-23T01:19:42.557Z,2.34
2022-12-23T01:22:09.322Z,2.36
2022-12-23T01:24:35.868Z,2.34
2022-12-23T01:27:02.456Z,2.35
2022-12-23T01:29:29.992Z,2.37
2022-12-23T01:31:56.599Z,2.21
2022-12-23T01:34:23.166Z,2.38
2022-12-23T01:36:49.801Z,2.37
2022-12-23T01:39:16.378Z,2.38
2022-12-23T01:42:01.672Z,2.39
2022-12-23T01:44:57.832Z,2.40
2022-12-23T01:47:24.300Z,2.39
2022-12-23T01:49:55.545Z,2.39
2022-12-23T01:52:22.661Z,2.39
2022-12-23T01:54:49.597Z,2.34
2022-12-23T01:57:16.253Z,2.32
2022-12-23T02:00:03.352Z,2.31
2022-12-23T02:02:50.655Z,2.31
2022-12-23T02:05:17.758Z,2.32
2022-12-23T02:08:03.455Z,2.32
2022-12-23T02:10:43.912Z,2.38
2022-12-23T02:13:36.676Z,2.39
2022-12-23T02:16:17.958Z,2.39
2022-12-23T02:19:02.616Z,2.37
2022-12-23T02:21:44.147Z,2.38
2022-12-23T02:24:16.653Z,2.35
2022-12-23T02:27:09.104Z,2.33
2022-12-23T02:30:00.366Z,2.30
2022-12-23T02:32:45.646Z,2.28
2022-12-23T02:35:50.396Z,2.27
2022-12-23T02:38:26.749Z,2.24
2022-12-23T02:41:12.863Z,2.22
2022-12-23T02:43:57.346Z,2.21
2022-12-23T02:46:38.575Z,2.18
2022-12-23T02:49:12.836Z,2.15
2022-12-23T02:51:47.274Z,2.09
2022-12-23T02:54:18.728Z,2.09
2022-12-23T02:56:50.663Z,2.08
2022-12-23T02:59:24.336Z,2.06
2022-12-23T03:01:53.270Z,2.08
2022-12-23T03:04:20.063Z,2.09
2022-12-23T03:06:51.375Z,2.10
2022-12-23T03:09:30.912Z,2.06
2022-12-23T03:12:29.731Z,2.04
2022-12-23T03:15:08.805Z,2.12
2022-12-23T03:17:41.059Z,2.13
2022-12-23T03:20:26.429Z,2.13
2022-12-23T03:23:04.351Z,2.13
2022-12-23T03:25:35.929Z,2.15
2022-12-23T03:28:10.400Z,2.16
2022-12-23T03:30:39.187Z,2.17
2022-12-23T03:33:09.448Z,2.20
2022-12-23T03:35:45.461Z,2.21
2022-12-23T03:38:15.168Z,2.23
2022-12-23T03:40:45.384Z,2.23
2022-12-23T03:43:14.714Z,2.25
2022-12-23T03:45:51.533Z,2.25
2022-12-23T03:48:27.487Z,2.26
2022-12-23T03:50:58.608Z,2.26
2022-12-23T03:53:33.559Z,2.27
2022-12-23T03:56:09.319Z,2.29
2022-12-23T03:58:53.876Z,2.32
2022-12-23T04:01:29.493Z,2.37
2022-12-23T04:04:11.502Z,2.39
2022-12-23T04:06:52.056Z,2.38
2022-12-23T04:09:22.424Z,2.36
2022-12-23T04:11:49.667Z,2.33
2022-12-23T04:14:20.993Z,2.34
2022-12-23T04:16:49.227Z,2.33
2022-12-23T04:19:16.064Z,2.36
2022-12-23T04:21:42.699Z,2.36
2022-12-23T04:24:09.358Z,2.37
2022-12-23T04:26:36.007Z,2.39
2022-12-23T04:29:02.656Z,2.40
2022-12-23T04:31:29.290Z,2.41
2022-12-23T04:33:55.847Z,2.41
2022-12-23T04:36:22.455Z,2.37
2022-12-23T04:38:49.063Z,2.38
2022-12-23T04:41:15.706Z,2.40
2022-12-23T04:43:43.663Z,2.39
2022-12-23T04:46:13.160Z,2.39
2022-12-23T04:48:39.787Z,2.41
2022-12-23T04:51:06.464Z,2.44
2022-12-23T04:53:33.177Z,2.41
2022-12-23T04:55:59.815Z,2.40
2022-12-23T04:58:26.404Z,2.38
2022-12-23T05:01:04.289Z,2.34
2022-12-23T05:03:31.204Z,2.31
2022-12-23T05:05:57.802Z,2.31
2022-12-23T05:08:24.423Z,2.30
2022-12-23T05:10:51.061Z,2.24
2022-12-23T05:13:17.815Z,2.22
2022-12-23T05:15:45.993Z,2.25
2022-12-23T05:18:12.803Z,2.23
2022-12-23T05:20:39.433Z,2.20
2022-12-23T05:23:06.205Z,2.20
2022-12-23T05:25:34.388Z,2.17
2022-12-23T05:28:01.085Z,2.19
2022-12-23T05:30:27.940Z,2.21
2022-12-23T05:32:55.908Z,2.18
2022-12-23T05:35:26.288Z,2.13
2022-12-23T05:37:52.988Z,2.08
2022-12-23T05:40:23.847Z,2.02
2022-12-23T05:42:54.755Z,2.02
2022-12-23T05:45:22.770Z,1.97
2022-12-23T05:47:50.391Z,1.95
2022-12-23T05:50:17.033Z,1.97
2022-12-23T05:52:43.797Z,1.99
2022-12-23T05:55:10.620Z,1.96
2022-12-23T05:57:37.294Z,1.98
2022-12-23T06:00:04.634Z,1.98
2022-12-23T06:02:31.429Z,1.92
2022-12-23T06:04:58.351Z,1.85
2022-12-23T06:07:24.912Z,1.75
2022-12-23T06:09:53.480Z,1.65
2022-12-23T06:12:20.046Z,1.64
2022-12-23T06:14:46.809Z,1.60
2022-12-23T06:17:13.364Z,1.59
2022-12-23T06:19:39.954Z,1.50
2022-12-23T06:22:06.591Z,1.43
2022-12-23T06:24:33.144Z,1.33
2022-12-23T06:26:59.737Z,1.28
2022-12-23T06:29:26.395Z,1.24
2022-12-23T06:31:53.265Z,1.25
2022-12-23T06:34:19.846Z,1.21
2022-12-23T06:36:46.679Z,1.20
2022-12-23T06:39:13.620Z,1.24
2022-12-23T06:41:40.477Z,1.27
2022-12-23T06:44:07.114Z,1.21
2022-12-23T06:46:34.104Z,1.25
2022-12-23T06:49:00.730Z,1.20
2022-12-23T06:51:27.375Z,1.21
2022-12-23T06:53:53.959Z,1.25
2022-12-23T06:56:20.856Z,1.21
2022-12-23T06:58:47.671Z,1.28
2022-12-23T07:01:14.316Z,1.26
2022-12-23T07:03:41.436Z,1.27
2022-12-23T07:06:08.466Z,1.31
2022-12-23T07:08:35.157Z,1.34
2022-12-23T07:11:03.551Z,1.42
2022-12-23T07:13:31.089Z,1.49
2022-12-23T07:15:58.035Z,1.49
2022-12-23T07:18:25.787Z,1.62
2022-12-23T07:20:54.408Z,1.74
2022-12-23T07:23:21.053Z,1.85
2022-12-23T07:25:48.160Z,1.93
2022-12-23T07:28:14.703Z,2.06
2022-12-23T07:30:41.271Z,2.17
2022-12-23T07:33:08.222Z,2.27
2022-12-23T07:35:35.012Z,2.36
2022-12-23T07:38:01.830Z,2.41
2022-12-23T07:40:28.607Z,2.39
2022-12-23T07:42:57.718Z,2.47
2022-12-23T07:45:25.923Z,2.52
2022-12-23T07:47:57.065Z,2.56
2022-12-23T07:50:24.229Z,2.60
2022-12-23T07:52:52.497Z,2.63
2022-12-23T07:55:20.429Z,2.67
2022-12-23T07:57:51.233Z,2.66
2022-12-23T08:00:19.678Z,2.71
2022-12-23T08:02:47.276Z,2.69
2022-12-23T08:05:15.129Z,2.80
2022-12-23T08:07:42.368Z,2.83
2022-12-23T08:10:09.845Z,2.85
2022-12-23T08:12:36.515Z,2.92
2022-12-23T08:15:03.388Z,2.94
2022-12-23T08:17:30.927Z,3.08
2022-12-23T08:19:57.641Z,3.14
2022-12-23T08:22:24.834Z,3.22
2022-12-23T08:24:52.735Z,3.24
2022-12-23T08:27:19.759Z,3.32
2022-12-23T08:29:46.366Z,3.30
2022-12-23T08:32:13.115Z,3.29
2022-12-23T08:34:39.767Z,3.34
2022-12-23T08:37:06.605Z,3.40
2022-12-23T08:39:33.196Z,3.41
2022-12-23T08:41:59.802Z,3.40
2022-12-23T08:44:28.089Z,3.43
2022-12-23T08:46:55.656Z,3.42
2022-12-23T08:49:22.646Z,3.43
2022-12-23T08:51:49.379Z,3.49
2022-12-23T08:54:16.121Z,3.54
2022-12-23T08:56:43.017Z,3.57
2022-12-23T08:59:19.189Z,3.63
2022-12-23T09:01:48.011Z,3.70
2022-12-23T09:04:15.157Z,3.76
2022-12-23T09:06:42.998Z,3.90
2022-12-23T09:09:14.679Z,4.03
2022-12-23T09:11:41.958Z,4.11
2022-12-23T09:14:10.310Z,4.22
2022-12-23T09:16:37.668Z,4.31
2022-12-23T09:19:04.992Z,4.39
2022-12-23T09:21:31.885Z,4.44
2022-12-23T09:23:58.980Z,4.44
2022-12-23T09:26:27.891Z,4.53
2022-12-23T09:28:55.305Z,4.57
2022-12-23T09:31:22.836Z,4.68
2022-12-23T09:33:51.561Z,4.76
2022-12-23T09:36:18.969Z,4.77
2022-12-23T09:38:46.705Z,4.73
2022-12-23T09:41:16.005Z,4.95
2022-12-23T09:44:07.186Z,5.10
2022-12-23T09:46:38.875Z,5.10
2022-12-23T09:49:17.693Z,5.24
2022-12-23T09:51:46.988Z,5.31
2022-12-23T09:54:21.218Z,5.40
2022-12-23T09:56:59.176Z,5.45
2022-12-23T09:59:44.463Z,5.57
2022-12-23T10:02:22.667Z,5.64
2022-12-23T10:05:17.105Z,5.74
2022-12-23T10:08:08.314Z,5.75
2022-12-23T10:11:01.953Z,5.75
2022-12-23T10:13:42.142Z,5.71
2022-12-23T10:16:15.878Z,5.70
2022-12-23T10:19:02.014Z,5.71
2022-12-23T10:21:35.398Z,5.77
2022-12-23T10:24:11.063Z,5.84
2022-12-23T10:26:53.261Z,5.94
2022-12-23T10:29:25.262Z,5.95
2022-12-23T10:32:25.362Z,6.05
2022-12-23T10:34:59.045Z,6.07
2022-12-23T10:37:34.584Z,6.01
2022-12-23T10:40:38.338Z,6.05
2022-12-23T10:43:17.100Z,5.97
2022-12-23T10:45:52.727Z,5.90
2022-12-23T10:48:48.537Z,5.82
2022-12-23T10:51:38.812Z,5.77
2022-12-23T10:54:26.827Z,5.70
2022-12-23T10:56:54.348Z,5.66
2022-12-23T10:59:26.481Z,5.59
2022-12-23T11:02:02.272Z,5.42
2022-12-23T11:04:39.403Z,5.39
2022-12-23T11:07:42.969Z,5.28
2022-12-23T11:10:00.656Z,5.17
2022-12-23T11:12:52.618Z,5.13
2022-12-23T11:15:40.274Z,5.11
2022-12-23T11:18:19.496Z,5.09
2022-12-23T11:21:02.784Z,5.04
2022-12-23T11:23:32.673Z,5.03
2022-12-23T11:26:04.549Z,5.03
2022-12-23T11:28:32.260Z,5.05
2022-12-23T11:31:09.751Z,5.08
2022-12-23T11:33:39.909Z,5.09
2022-12-23T11:36:13.701Z,5.15
2022-12-23T11:39:20.534Z,5.14
2022-12-23T11:41:49.523Z,5.14
2022-12-23T11:44:38.347Z,5.12
2022-12-23T11:47:29.194Z,5.03
2022-12-23T11:49:59.198Z,4.98
2022-12-23T11:52:27.649Z,4.92
2022-12-23T11:55:23.146Z,4.84
2022-12-23T11:57:51.109Z,4.82
2022-12-23T12:00:25.197Z,4.79
2022-12-23T12:02:58.724Z,4.72
2022-12-23T12:05:37.384Z,4.69
2022-12-23T12:08:09.982Z,4.65
2022-12-23T12:10:39.251Z,4.61
2022-12-23T12:13:28.461Z,4.61
2022-12-23T12:16:18.772Z,4.55
2022-12-23T12:18:52.030Z,4.60
2022-12-23T12:21:28.598Z,4.62
2022-12-23T12:24:17.944Z,4.63
2022-12-23T12:26:47.225Z,4.69
2022-12-23T12:29:39.646Z,4.74
2022-12-23T12:32:21.881Z,4.77
2022-12-23T12:35:02.874Z,4.78
2022-12-23T12:37:41.500Z,4.79
2022-12-23T12:40:34.042Z,4.74
2022-12-23T12:43:12.696Z,4.69
2022-12-23T12:45:50.305Z,4.62
2022-12-23T12:48:32.243Z,4.51
2022-12-23T12:51:16.013Z,4.43
2022-12-23T12:54:05.198Z,4.41
2022-12-23T12:56:44.150Z,4.39
2022-12-23T12:59:24.340Z,4.35
2022-12-23T13:02:16.144Z,4.36
2022-12-23T13:05:03.579Z,4.33
2022-12-23T13:07:54.749Z,4.37
2022-12-23T13:10:47.525Z,4.38
2022-12-23T13:13:33.552Z,4.41
2022-12-23T13:16:24.887Z,4.39
2022-12-23T13:19:01.170Z,4.39
2022-12-23T13:21:33.614Z,4.37
2022-12-23T13:24:14.237Z,4.33
2022-12-23T13:27:03.097Z,4.35
2022-12-23T13:29:32.701Z,4.36
2022-12-23T13:32:41.175Z,4.35
2022-12-23T13:35:45.585Z,4.39
2022-12-23T13:38:59.708Z,4.39
2022-12-23T13:41:26.364Z,4.37
2022-12-23T13:44:07.450Z,4.33
2022-12-23T13:46:36.876Z,4.29
2022-12-23T13:49:23.718Z,4.26
2022-12-23T13:51:56.357Z,4.24
2022-12-23T13:54:51.674Z,4.22
2022-12-23T13:57:56.453Z,4.20
2022-12-23T14:00:25.041Z,4.19
2022-12-23T14:03:00.204Z,4.19
2022-12-23T14:05:32.308Z,4.17
2022-12-23T14:08:01.725Z,4.11
2022-12-23T14:10:29.090Z,4.11
2022-12-23T14:13:02.071Z,4.11
2022-12-23T14:15:31.635Z,4.10
2022-12-23T14:18:32.122Z,4.09
2022-12-23T14:21:08.050Z,4.09
2022-12-23T14:24:03.966Z,4.08
2022-12-23T14:26:51.061Z,3.99
2022-12-23T14:30:05.254Z,4.03
2022-12-23T14:32:43.213Z,4.02
2022-12-23T14:35:24.336Z,3.97
2022-12-23T14:38:15.622Z,3.95
2022-12-23T14:40:42.221Z,3.95
2022-12-23T14:43:27.627Z,3.94
2022-12-23T14:45:55.529Z,3.92
2022-12-23T14:48:34.116Z,3.91
2022-12-23T14:51:23.103Z,3.90
2022-12-23T14:53:53.732Z,3.88
2022-12-23T14:56:39.759Z,3.86
2022-12-23T14:59:28.956Z,3.88
2022-12-23T15:02:05.595Z,3.85
2022-12-23T15:04:46.259Z,3.84
2022-12-23T15:07:25.199Z,3.84
2022-12-23T15:10:01.300Z,3.77
2022-12-23T15:12:46.396Z,3.83
2022-12-23T15:15:17.830Z,3.86
2022-12-23T15:17:45.859Z,3.87
2022-12-23T15:20:25.701Z,3.82
2022-12-23T15:23:01.496Z,3.85
2022-12-23T15:25:33.875Z,3.79
2022-12-23T15:28:05.443Z,3.47
2022-12-23T15:30:47.606Z,3.71
2022-12-23T15:34:00.647Z,3.74
2022-12-23T15:36:12.156Z,3.80
2022-12-23T15:38:41.338Z,3.77
2022-12-23T15:41:17.540Z,3.74
2022-12-23T15:43:45.577Z,3.73
2022-12-23T15:46:25.101Z,3.62
2022-12-23T15:48:55.924Z,3.72
2022-12-23T15:52:05.881Z,3.62
2022-12-23T15:54:45.119Z,3.55
2022-12-23T15:57:18.805Z,3.49
2022-12-23T15:59:47.124Z,3.72
2022-12-23T16:02:58.931Z,3.64
2022-12-23T16:05:11.984Z,3.72
2022-12-23T16:07:43.295Z,3.61
2022-12-23T16:10:22.185Z,3.53
2022-12-23T16:12:54.871Z,3.59
2022-12-23T16:15:32.932Z,3.59
2022-12-23T16:18:19.370Z,3.40
2022-12-23T16:21:00.441Z,3.33
2022-12-23T16:23:35.364Z,3.52
2022-12-23T16:26:04.724Z,3.51
2022-12-23T16:28:45.390Z,3.41
2022-12-23T16:31:16.515Z,3.53
2022-12-23T16:34:01.867Z,3.54
2022-12-23T16:36:34.137Z,3.56
2022-12-23T16:39:22.610Z,3.54
2022-12-23T16:41:57.071Z,3.50
2022-12-23T16:44:24.520Z,3.34
2022-12-23T16:46:53.414Z,3.43
2022-12-23T16:49:28.012Z,3.39
2022-12-23T16:51:59.721Z,3.49
2022-12-23T16:54:26.301Z,3.48
2022-12-23T16:56:52.880Z,3.47
2022-12-23T16:59:20.819Z,3.47
2022-12-23T17:01:49.773Z,3.40
2022-12-23T17:04:19.155Z,3.25
2022-12-23T17:06:47.100Z,3.31
2022-12-23T17:09:15.597Z,3.39
2022-12-23T17:11:50.268Z,3.36
2022-12-23T17:14:23.878Z,3.50
2022-12-23T17:16:52.487Z,3.53
2022-12-23T17:19:27.732Z,3.53
2022-12-23T17:22:02.084Z,3.54
2022-12-23T17:24:31.306Z,3.55
2022-12-23T17:27:00.703Z,3.40
2022-12-23T17:29:29.876Z,3.55
2022-12-23T17:31:56.542Z,3.48
2022-12-23T17:34:24.331Z,3.53
2022-12-23T17:36:51.694Z,3.52
2022-12-23T17:39:20.438Z,3.46
2022-12-23T17:41:47.765Z,3.46
2022-12-23T17:44:16.478Z,3.50
2022-12-23T17:46:43.468Z,3.52
2022-12-23T17:49:11.685Z,3.54
2022-12-23T17:51:40.113Z,3.53
2022-12-23T17:54:06.753Z,3.53
2022-12-23T17:56:33.735Z,3.44
2022-12-23T17:59:00.370Z,3.55
2022-12-23T18:01:30.054Z,3.54
2022-12-23T18:03:58.905Z,3.58
2022-12-23T18:06:27.514Z,3.56
2022-12-23T18:08:54.260Z,3.55
2022-12-23T18:11:22.920Z,3.54
2022-12-23T18:13:52.226Z,3.55
2022-12-23T18:16:18.933Z,3.54
2022-12-23T18:18:47.039Z,3.50
2022-12-23T18:21:20.824Z,3.52
2022-12-23T18:23:47.616Z,3.52
2022-12-23T18:26:15.292Z,3.51
2022-12-23T18:28:43.372Z,3.50
2022-12-23T18:31:16.505Z,3.48
2022-12-23T18:33:43.722Z,3.51
2022-12-23T18:36:24.365Z,3.52
2022-12-23T18:38:52.264Z,3.51
2022-12-23T18:41:20.203Z,3.47
2022-12-23T18:43:47.520Z,3.44
2022-12-23T18:46:14.931Z,3.53
2022-12-23T18:48:41.728Z,3.58
2022-12-23T18:51:14.860Z,3.57
2022-12-23T18:53:41.743Z,3.58
2022-12-23T18:56:13.800Z,3.59
2022-12-23T18:58:40.514Z,3.55
2022-12-23T19:01:14.824Z,3.52
2022-12-23T19:03:45.287Z,3.56
2022-12-23T19:06:16.200Z,3.57
2022-12-23T19:08:43.904Z,3.60
2022-12-23T19:11:16.495Z,3.61
2022-12-23T19:13:43.479Z,3.56
2022-12-23T19:16:16.103Z,3.60
2022-12-23T19:18:43.058Z,3.61
2022-12-23T19:21:09.691Z,3.63
2022-12-23T19:23:37.201Z,3.66
2022-12-23T19:26:06.070Z,3.64
2022-12-23T19:28:38.102Z,3.67
2022-12-23T19:31:10.385Z,3.61
2022-12-23T19:33:38.650Z,3.61
2022-12-23T19:36:10.252Z,3.62
2022-12-23T19:38:37.163Z,3.63
2022-12-23T19:41:04.514Z,3.61
2022-12-23T19:43:31.114Z,3.62
2022-12-23T19:46:02.191Z,3.60
2022-12-23T19:48:29.916Z,3.61
2022-12-23T19:51:22.807Z,3.63
2022-12-23T19:53:54.339Z,3.65
2022-12-23T19:56:21.667Z,3.64
2022-12-23T19:58:50.901Z,3.60
2022-12-23T20:01:25.235Z,3.68
2022-12-23T20:03:53.787Z,3.71
2022-12-23T20:06:23.752Z,3.70
2022-12-23T20:08:56.375Z,3.67
2022-12-23T20:11:26.664Z,3.61
2022-12-23T20:13:54.333Z,3.60
2022-12-23T20:16:21.851Z,3.70
2022-12-23T20:18:48.829Z,3.65
2022-12-23T20:21:15.650Z,3.64
2022-12-23T20:23:43.002Z,3.63
2022-12-23T20:26:12.539Z,3.63
2022-12-23T20:28:39.262Z,3.64
2022-12-23T20:31:09.301Z,3.68
2022-12-23T20:33:38.798Z,3.67
2022-12-23T20:36:06.997Z,3.65
2022-12-23T20:38:34.877Z,3.60
2022-12-23T20:41:03.229Z,3.63
2022-12-23T20:43:29.783Z,3.67
2022-12-23T20:45:56.629Z,3.65
2022-12-23T20:48:25.875Z,3.42
2022-12-23T20:50:56.776Z,3.51
2022-12-23T20:53:23.661Z,3.71
2022-12-23T20:55:50.325Z,3.68
2022-12-23T20:58:35.769Z,3.66
2022-12-23T21:01:10.284Z,3.63
2022-12-23T21:03:37.015Z,3.64
2022-12-23T21:06:04.774Z,3.64
2022-12-23T21:08:31.468Z,3.64
2022-12-23T21:10:58.674Z,3.70
2022-12-23T21:13:25.473Z,3.70
2022-12-23T21:15:53.326Z,3.68
2022-12-23T21:18:19.944Z,3.67
2022-12-23T21:20:46.529Z,3.66
2022-12-23T21:23:13.120Z,3.69
2022-12-23T21:25:39.675Z,3.70
2022-12-23T21:28:06.248Z,3.65
2022-12-23T21:30:34.086Z,3.65
2022-12-23T21:33:02.531Z,3.62
2022-12-23T21:35:29.254Z,3.70
2022-12-23T21:37:56.189Z,3.64
2022-12-23T21:40:22.809Z,3.57
2022-12-23T21:42:49.585Z,3.60
2022-12-23T21:45:16.128Z,3.57
2022-12-23T21:47:42.719Z,3.55
2022-12-23T21:50:09.675Z,3.50
2022-12-23T21:52:36.211Z,3.45
2022-12-23T21:55:02.833Z,3.45
2022-12-23T21:57:29.727Z,3.35
2022-12-23T21:59:56.384Z,3.37
2022-12-23T22:02:23.069Z,3.29
2022-12-23T22:04:49.756Z,3.21
2022-12-23T22:07:16.336Z,3.12
2022-12-23T22:09:42.962Z,2.94
2022-12-23T22:12:09.505Z,2.85
2022-12-23T22:14:36.112Z,2.81
2022-12-23T22:17:02.816Z,2.77
2022-12-23T22:19:29.524Z,2.75
2022-12-23T22:21:56.112Z,2.70
2022-12-23T22:24:22.941Z,2.67
2022-12-23T22:26:49.921Z,2.62
2022-12-23T22:29:16.861Z,2.56
2022-12-23T22:31:49.868Z,2.61
2022-12-23T22:34:19.373Z,2.59
2022-12-23T22:36:46.976Z,2.58
2022-12-23T22:39:20.086Z,2.53
2022-12-23T22:41:48.197Z,2.50
2022-12-23T22:44:15.466Z,2.50
2022-12-23T22:46:42.614Z,2.51
2022-12-23T22:49:13.598Z,2.48
2022-12-23T22:51:41.894Z,2.59
2022-12-23T22:54:09.088Z,2.58
2022-12-23T22:56:35.728Z,2.62
2022-12-23T22:59:02.429Z,2.65
2022-12-23T23:01:32.918Z,2.56
2022-12-23T23:04:02.163Z,2.61
2022-12-23T23:06:31.534Z,2.58
2022-12-23T23:08:58.402Z,2.46
2022-12-23T23:11:26.380Z,2.48
2022-12-23T23:13:53.851Z,2.47
2022-12-23T23:16:20.864Z,2.47
2022-12-23T23:18:47.520Z,2.38
2022-12-23T23:21:14.987Z,2.36
2022-12-23T23:23:41.789Z,2.33
2022-12-23T23:26:10.253Z,2.26
2022-12-23T23:28:39.380Z,2.31
2022-12-23T23:31:39.914Z,2.30
2022-12-23T23:33:55.509Z,2.29
2022-12-23T23:36:22.168Z,2.28
2022-12-23T23:38:48.744Z,2.26
2022-12-23T23:41:22.242Z,2.24
2022-12-23T23:43:49.712Z,2.23
2022-12-23T23:46:16.485Z,2.24
2022-12-23T23:48:43.173Z,2.23
2022-12-23T23:51:09.869Z,2.24
2022-12-23T23:53:36.435Z,2.28
2022-12-23T23:56:06.263Z,2.36
2022-12-23T23:58:33.652Z,2.45
